Time;durP1;ratioP1;P1;durP2;ratioP2;P2;SDS_P1;SDS_P2;PMS_P1;PMS_P2;Temp;Humidity;BMP_temperature;BMP_pressure;BME280_temperature;BME280_humidity;BME280_pressure;Samples;Min_cycle;Max_cycle;Signal;HPM_P1;HPM_P2
2021/12/02 00:01:15;;;;;;;6.10;4.83;;;;;;;-2.01;68.12;98542.16;1658282;85;21456;-54
2021/12/02 00:03:42;;;;;;;8.45;4.80;;;;;;;-1.96;68.00;98539.11;1668611;85;21687;-54
2021/12/02 00:06:12;;;;;;;6.65;4.92;;;;;;;-1.93;67.40;98536.92;1651195;85;21521;-56
2021/12/02 00:08:40;;;;;;;4.72;3.45;;;;;;;-1.90;67.35;98533.05;1667224;85;21511;-55
2021/12/02 00:11:07;;;;;;;4.42;4.03;;;;;;;-1.87;67.22;98536.86;1649493;85;21425;-54
2021/12/02 00:21:24;;;;;;;4.10;3.45;;;;;;;-1.77;65.85;98522.17;1661309;85;20976;-54
2021/12/02 00:24:01;;;;;;;6.30;3.37;;;;;;;-1.77;66.17;98520.44;1661746;85;21657;-54
2021/12/02 00:26:29;;;;;;;4.40;3.77;;;;;;;-1.74;66.38;98517.41;1662858;85;21469;-54
2021/12/02 00:28:58;;;;;;;3.85;3.00;;;;;;;-1.71;66.07;98525.97;1664087;83;21895;-55
2021/12/02 00:31:31;;;;;;;5.17;3.20;;;;;;;-1.70;66.37;98512.19;1678898;84;21590;-55
2021/12/02 00:34:02;;;;;;;5.17;3.17;;;;;;;-1.68;66.21;98511.73;1657842;85;21662;-55
2021/12/02 00:36:31;;;;;;;3.47;2.75;;;;;;;-1.65;66.25;98506.55;1651034;85;21563;-54
2021/12/02 00:38:59;;;;;;;4.15;3.30;;;;;;;-1.62;66.35;98506.53;1657580;85;21513;-54
2021/12/02 00:41:27;;;;;;;4.35;3.20;;;;;;;-1.60;66.87;98509.94;1660030;85;22057;-55
2021/12/02 00:43:56;;;;;;;7.83;3.10;;;;;;;-1.53;66.43;98515.02;1653551;85;21622;-54
2021/12/02 00:46:25;;;;;;;4.15;3.67;;;;;;;-1.52;66.38;98511.58;1652219;85;21922;-56
2021/12/02 00:48:53;;;;;;;3.90;2.95;;;;;;;-1.45;66.43;98510.61;1661418;84;21506;-55
2021/12/02 00:51:20;;;;;;;3.90;3.37;;;;;;;-1.43;66.43;98497.25;1659733;84;21510;-54
2021/12/02 00:53:52;;;;;;;4.50;3.50;;;;;;;-1.39;66.20;98492.50;1665153;84;21699;-55
2021/12/02 00:56:23;;;;;;;3.60;2.92;;;;;;;-1.35;66.14;98482.55;1669920;84;21597;-54
2021/12/02 00:58:51;;;;;;;3.65;3.30;;;;;;;-1.35;66.10;98475.27;1658128;84;21041;-54
2021/12/02 01:01:21;;;;;;;3.90;3.50;;;;;;;-1.33;66.23;98474.80;1664486;84;21630;-55
2021/12/02 01:03:56;;;;;;;3.42;3.12;;;;;;;-1.31;66.40;98466.16;1670817;84;21519;-55
2021/12/02 01:06:23;;;;;;;4.53;3.58;;;;;;;-1.26;66.33;98463.50;1670149;85;22026;-55
2021/12/02 01:08:50;;;;;;;5.55;3.52;;;;;;;-1.23;66.35;98454.00;1653084;84;21566;-54
2021/12/02 01:11:18;;;;;;;4.55;3.22;;;;;;;-1.21;66.43;98454.83;1649706;84;21569;-55
2021/12/02 01:13:46;;;;;;;4.12;3.25;;;;;;;-1.18;66.51;98445.77;1671351;84;21601;-54
2021/12/02 01:16:14;;;;;;;3.72;3.37;;;;;;;-1.13;66.43;98443.55;1664501;84;21447;-55
2021/12/02 01:18:41;;;;;;;6.17;3.98;;;;;;;-1.11;66.37;98436.64;1670864;84;21578;-55
2021/12/02 01:21:14;;;;;;;4.87;3.75;;;;;;;-1.07;66.53;98429.30;1668984;84;27217;-55
2021/12/02 01:23:42;;;;;;;6.60;4.15;;;;;;;-1.08;66.61;98429.70;1634274;85;21518;-55
2021/12/02 01:26:09;;;;;;;5.37;4.20;;;;;;;-1.07;66.56;98428.00;1636316;84;21562;-55
2021/12/02 01:28:36;;;;;;;5.60;4.00;;;;;;;-1.13;66.79;98429.36;1664650;84;20970;-57
2021/12/02 01:31:04;;;;;;;4.30;3.90;;;;;;;-1.11;66.91;98423.74;1666865;84;22576;-55
2021/12/02 01:33:31;;;;;;;4.40;3.87;;;;;;;-1.11;67.22;98420.75;1662706;84;21633;-55
2021/12/02 01:36:00;;;;;;;5.35;4.50;;;;;;;-1.09;67.42;98406.50;1667462;84;21803;-54
2021/12/02 01:38:29;;;;;;;4.72;4.22;;;;;;;-1.08;67.42;98416.81;1659845;84;21578;-54
2021/12/02 01:40:57;;;;;;;10.78;5.40;;;;;;;-1.07;67.55;98412.52;1671908;84;21570;-55
2021/12/02 01:43:52;;;;;;;6.10;4.58;;;;;;;-0.99;67.47;98418.41;1665865;84;21792;-54
2021/12/02 01:46:23;;;;;;;8.58;5.15;;;;;;;-1.00;67.61;98411.52;1657192;84;21080;-54
2021/12/02 01:49:04;;;;;;;7.58;5.92;;;;;;;-0.94;67.59;98410.16;1669960;85;21576;-56
2021/12/02 01:51:28;;;;;;;7.08;6.12;;;;;;;-0.90;67.64;98397.62;1715374;82;21555;-55
2021/12/02 01:54:07;;;;;;;7.03;6.12;;;;;;;-0.90;67.81;98394.19;1690233;82;21543;-55
2021/12/02 01:56:42;;;;;;;6.75;5.70;;;;;;;-0.89;67.88;98392.85;1714337;82;21907;-55
2021/12/02 01:59:13;;;;;;;8.25;6.05;;;;;;;-0.87;68.00;98391.09;1699753;82;20968;-55
2021/12/02 02:01:42;;;;;;;8.25;5.83;;;;;;;-0.83;67.97;98388.90;1722614;82;20971;-55
2021/12/02 02:04:09;;;;;;;8.55;6.65;;;;;;;-0.85;68.02;98371.72;1724227;82;21417;-55
2021/12/02 02:06:58;;;;;;;9.00;6.47;;;;;;;-0.81;68.15;98370.78;1712599;82;21475;-54
2021/12/02 02:09:29;;;;;;;8.75;6.92;;;;;;;-0.79;68.24;98372.48;1710596;82;21709;-57
2021/12/02 02:11:56;;;;;;;7.85;6.42;;;;;;;-0.77;68.40;98376.33;1714738;82;21482;-55
2021/12/02 02:14:25;;;;;;;9.40;6.53;;;;;;;-0.76;68.29;98384.92;1712896;82;20957;-55
2021/12/02 02:16:53;;;;;;;9.28;6.90;;;;;;;-0.78;68.42;98372.03;1713990;82;21544;-55
2021/12/02 02:19:21;;;;;;;7.70;6.65;;;;;;;-0.77;68.53;98387.95;1719223;82;21475;-55
2021/12/02 02:21:48;;;;;;;;;;;;;;;-0.75;68.68;98373.70;1722269;82;22029;-55
2021/12/02 02:24:17;;;;;;;7.25;6.55;;;;;;;-0.75;68.86;98378.44;1725295;82;20431;-55
2021/12/02 02:26:44;;;;;;;8.20;6.62;;;;;;;-0.75;68.79;98390.47;1706544;82;21449;-55
2021/12/02 02:29:12;;;;;;;7.83;7.03;;;;;;;-0.74;68.87;98393.48;1713734;82;21508;-56
2021/12/02 02:31:42;;;;;;;7.80;6.90;;;;;;;-0.72;69.03;98386.56;1717156;82;21491;-55
2021/12/02 02:34:14;;;;;;;8.08;7.12;;;;;;;-0.71;69.19;98376.21;1722184;82;21782;-55
2021/12/02 02:36:51;;;;;;;9.63;7.55;;;;;;;-0.69;69.46;98373.61;1681472;84;21015;-55
2021/12/02 02:39:12;;;;;;;9.40;7.62;;;;;;;-0.63;69.40;98372.20;1669176;84;20960;-56
2021/12/02 02:41:40;;;;;;;11.20;7.28;;;;;;;-0.60;69.27;98367.84;1718883;82;21558;-55
2021/12/02 02:44:08;;;;;;;9.00;7.50;;;;;;;-0.62;69.38;98359.27;1712447;82;21542;-55
2021/12/02 02:46:40;;;;;;;7.40;6.58;;;;;;;-0.61;69.62;98365.28;1708693;82;22001;-55
2021/12/02 02:49:10;;;;;;;9.63;7.00;;;;;;;-0.61;69.69;98365.28;1714904;82;21590;-55
2021/12/02 02:51:38;;;;;;;8.23;6.85;;;;;;;-0.55;69.81;98361.28;1714549;82;21591;-55
2021/12/02 02:54:07;;;;;;;;;;;;;;;-0.56;69.86;98364.77;1719843;82;21397;-55
2021/12/02 02:56:40;;;;;;;8.90;7.20;;;;;;;-0.49;69.86;98366.36;1721567;82;20189;-55
2021/12/02 03:09:38;;;;;;;8.63;7.53;;;;;;;-0.39;69.81;98355.41;1708710;82;21439;-55
2021/12/02 03:11:56;;;;;;;9.43;7.35;;;;;;;-0.38;69.84;98347.21;1713379;82;21804;-55
2021/12/02 03:14:37;;;;;;;9.15;7.28;;;;;;;-0.38;69.77;98352.38;1722907;82;21432;-55
2021/12/02 03:16:52;;;;;;;7.72;6.78;;;;;;;-0.37;69.71;98347.64;1711924;82;21459;-55
2021/12/02 03:19:25;;;;;;;9.08;6.75;;;;;;;-0.40;69.75;98345.95;1720707;82;21051;-56
2021/12/02 03:21:53;;;;;;;8.05;7.15;;;;;;;-0.37;69.79;98341.18;1709261;82;21470;-55
2021/12/02 03:24:20;;;;;;;7.97;7.17;;;;;;;-0.38;69.87;98341.59;1713426;82;21460;-55
2021/12/02 03:26:48;;;;;;;10.75;8.08;;;;;;;-0.33;69.79;98330.74;1720254;82;21566;-55
2021/12/02 03:29:15;;;;;;;9.55;7.17;;;;;;;-0.32;69.79;98322.55;1705534;82;21446;-55
2021/12/02 03:31:42;;;;;;;8.80;7.63;;;;;;;-0.29;69.85;98322.05;1718858;82;21589;-55
2021/12/02 03:34:11;;;;;;;8.78;7.20;;;;;;;-0.27;69.98;98325.45;1715810;82;21492;-56
2021/12/02 03:36:38;;;;;;;10.32;8.03;;;;;;;-0.28;69.89;98318.59;1707907;82;21528;-55
2021/12/02 03:39:07;;;;;;;8.43;7.17;;;;;;;-0.26;69.97;98310.38;1716768;82;21415;-55
2021/12/02 03:41:35;;;;;;;8.30;7.50;;;;;;;-0.24;69.86;98302.15;1717707;82;21452;-55
2021/12/02 03:44:02;;;;;;;8.80;7.90;;;;;;;-0.21;69.82;98305.09;1717186;82;21561;-55
2021/12/02 03:46:31;;;;;;;8.73;7.80;;;;;;;-0.23;69.98;98299.12;1676846;84;21585;-55
2021/12/02 03:48:59;;;;;;;8.90;8.10;;;;;;;-0.16;69.85;98297.27;1676978;84;21554;-55
2021/12/02 03:51:27;;;;;;;9.35;8.10;;;;;;;-0.14;69.86;98290.33;1717574;82;21435;-55
2021/12/02 03:53:54;;;;;;;9.03;8.00;;;;;;;-0.09;69.71;98288.06;1703013;82;21450;-55
2021/12/02 03:56:21;;;;;;;9.75;7.85;;;;;;;-0.05;69.86;98287.56;1718099;82;20963;-55
2021/12/02 03:58:48;;;;;;;;;;;;;;;-0.03;69.52;98280.17;1725326;82;21585;-55
2021/12/02 04:01:16;;;;;;;8.90;7.92;;;;;;;-0.03;69.58;98271.57;1724463;82;21752;-55
2021/12/02 04:03:43;;;;;;;9.90;8.55;;;;;;;-0.05;69.46;98271.60;1715705;82;22727;-55
2021/12/02 04:06:10;;;;;;;8.90;8.00;;;;;;;-0.06;69.49;98267.75;1710087;82;21519;-55
2021/12/02 04:08:43;;;;;;;10.72;8.28;;;;;;;-0.08;69.47;98263.91;1722742;82;21444;-55
2021/12/02 04:11:20;;;;;;;11.57;8.23;;;;;;;-0.05;69.53;98261.27;1718114;82;21570;-54
2021/12/02 04:13:55;;;;;;;10.32;8.80;;;;;;;-0.06;69.75;98269.05;1716528;82;22040;-55
2021/12/02 04:16:18;;;;;;;9.60;8.45;;;;;;;-0.02;69.53;98262.50;1707945;82;21531;-54
2021/12/02 04:18:40;;;;;;;10.13;8.98;;;;;;;-0.01;69.61;98258.17;1716272;82;21522;-55
2021/12/02 04:21:07;;;;;;;10.85;9.45;;;;;;;0.06;69.33;98262.75;1724670;82;21444;-54
2021/12/02 04:23:34;;;;;;;9.73;8.73;;;;;;;0.06;69.47;98255.86;1672882;84;21440;-54
2021/12/02 04:26:01;;;;;;;9.93;8.08;;;;;;;0.09;69.20;98266.56;1662128;84;21503;-54
2021/12/02 04:28:28;;;;;;;9.00;8.00;;;;;;;0.10;69.29;98259.23;1721450;82;21530;-55
2021/12/02 04:30:55;;;;;;;8.83;7.92;;;;;;;0.13;69.14;98251.39;1704789;82;21450;-56
2021/12/02 04:33:22;;;;;;;9.18;7.78;;;;;;;0.18;69.01;98245.68;1721563;82;21436;-55
2021/12/02 04:35:49;;;;;;;9.35;8.40;;;;;;;0.23;68.88;98244.27;1719984;82;21601;-55
2021/12/02 04:38:16;;;;;;;12.50;8.60;;;;;;;0.27;68.60;98242.88;1720528;82;22488;-55
2021/12/02 04:40:43;;;;;;;16.07;9.40;;;;;;;0.25;68.66;98242.08;1706462;82;21205;-55
2021/12/02 04:43:10;;;;;;;9.63;8.33;;;;;;;0.29;68.59;98234.64;1721494;82;21480;-55
2021/12/02 04:45:38;;;;;;;9.95;8.80;;;;;;;0.28;68.54;98232.93;1722646;82;21089;-55
2021/12/02 04:48:06;;;;;;;8.78;7.95;;;;;;;0.33;68.65;98236.72;1671209;85;21457;-55
2021/12/02 04:50:34;;;;;;;10.13;8.55;;;;;;;0.34;68.65;98238.40;1651950;85;21731;-54
2021/12/02 04:53:01;;;;;;;10.95;7.97;;;;;;;0.42;68.34;98240.83;1678840;84;21535;-55
2021/12/02 04:55:28;;;;;;;9.40;8.40;;;;;;;0.40;68.43;98252.50;1673317;85;20966;-56
2021/12/02 04:57:55;;;;;;;9.33;8.50;;;;;;;0.41;68.49;98238.66;1664098;85;21471;-55
2021/12/02 05:00:24;;;;;;;8.88;7.97;;;;;;;0.47;68.33;98245.42;1697338;83;21459;-55
2021/12/02 05:02:51;;;;;;;9.28;7.95;;;;;;;0.48;68.20;98233.75;1665806;85;21913;-55
2021/12/02 05:05:18;;;;;;;11.63;8.78;;;;;;;0.46;68.37;98229.06;1670760;85;21607;-55
2021/12/02 05:07:45;;;;;;;9.05;8.15;;;;;;;0.48;68.17;98230.33;1648056;85;21631;-55
2021/12/02 05:10:14;;;;;;;9.50;8.60;;;;;;;0.50;68.32;98229.39;1664162;84;21501;-56
2021/12/02 05:12:41;;;;;;;8.88;7.80;;;;;;;0.51;68.26;98227.22;1676433;84;21018;-56
2021/12/02 05:15:08;;;;;;;15.57;8.90;;;;;;;0.52;68.18;98221.14;1674266;84;21708;-56
2021/12/02 05:17:36;;;;;;;9.28;8.18;;;;;;;0.54;68.19;98223.25;1677901;84;21530;-56
2021/12/02 05:20:04;;;;;;;9.73;8.68;;;;;;;0.59;68.20;98216.69;1677763;84;21503;-56
2021/12/02 05:22:32;;;;;;;8.55;7.67;;;;;;;0.62;68.10;98206.23;1672881;84;21475;-55
2021/12/02 05:24:59;;;;;;;8.90;7.97;;;;;;;0.63;68.18;98204.52;1676253;84;27076;-56
2021/12/02 05:27:26;;;;;;;9.33;7.73;;;;;;;0.67;68.08;98216.48;1682747;84;21865;-55
2021/12/02 05:29:53;;;;;;;9.20;8.10;;;;;;;0.70;67.90;98208.20;1672311;84;21356;-55
2021/12/02 05:32:20;;;;;;;9.15;8.03;;;;;;;0.69;67.83;98212.12;1665135;84;21499;-54
2021/12/02 05:34:49;;;;;;;8.58;7.67;;;;;;;0.73;67.89;98215.02;1676671;84;21618;-55
2021/12/02 05:37:16;;;;;;;7.90;7.20;;;;;;;0.76;67.83;98217.09;1674735;84;20963;-55
2021/12/02 05:39:44;;;;;;;9.00;8.10;;;;;;;0.81;67.92;98225.17;1671012;84;21773;-54
2021/12/02 05:42:11;;;;;;;8.83;7.85;;;;;;;0.80;67.71;98211.39;1677910;84;21490;-55
2021/12/02 05:44:38;;;;;;;8.53;7.62;;;;;;;0.84;67.91;98212.17;1671838;84;21591;-56
2021/12/02 05:47:05;;;;;;;8.50;7.60;;;;;;;0.82;67.96;98225.14;1675931;84;21526;-56
2021/12/02 05:49:32;;;;;;;8.10;7.30;;;;;;;0.85;68.06;98219.89;1670011;84;21558;-55
2021/12/02 05:51:59;;;;;;;11.30;7.78;;;;;;;0.86;67.87;98220.73;1678952;84;25610;-55
2021/12/02 05:54:26;;;;;;;9.10;8.20;;;;;;;0.86;68.00;98233.22;1677623;84;21554;-56
2021/12/02 05:56:53;;;;;;;9.40;8.17;;;;;;;0.90;67.72;98230.11;1662813;84;21157;-56
2021/12/02 05:59:20;;;;;;;9.37;8.47;;;;;;;0.89;68.07;98229.72;1666527;84;21545;-56
2021/12/02 06:01:48;;;;;;;9.35;8.35;;;;;;;0.93;67.90;98224.87;1670197;84;21817;-55
2021/12/02 06:04:15;;;;;;;8.35;7.50;;;;;;;0.90;68.10;98225.78;1676998;84;21858;-55
2021/12/02 06:06:43;;;;;;;9.33;7.03;;;;;;;0.93;68.21;98220.53;1674225;84;21575;-56
2021/12/02 06:09:10;;;;;;;8.75;7.95;;;;;;;0.92;68.32;98230.50;1670296;84;21587;-56
2021/12/02 06:11:38;;;;;;;;;;;;;;;0.96;68.28;98224.77;1679323;84;21558;-55
2021/12/02 06:14:05;;;;;;;8.00;7.22;;;;;;;0.97;68.19;98225.19;1668004;84;20431;-56
2021/12/02 06:16:32;;;;;;;9.90;8.90;;;;;;;0.97;68.19;98218.72;1675325;84;21813;-56
2021/12/02 06:18:59;;;;;;;8.90;7.85;;;;;;;0.96;68.29;98224.77;1665161;84;21000;-56
2021/12/02 06:21:26;;;;;;;9.50;7.83;;;;;;;0.99;68.27;98218.23;1668392;84;21565;-56
2021/12/02 06:23:53;;;;;;;9.47;7.73;;;;;;;1.00;68.42;98220.36;1672922;84;21452;-56
2021/12/02 06:26:19;;;;;;;8.23;7.43;;;;;;;1.03;68.31;98235.82;1675223;84;21566;-55
2021/12/02 06:28:46;;;;;;;8.63;7.65;;;;;;;1.02;68.48;98229.80;1674689;84;21790;-56
2021/12/02 06:31:13;;;;;;;8.35;7.55;;;;;;;1.06;68.37;98218.92;1667887;84;20956;-55
2021/12/02 06:33:40;;;;;;;10.37;8.60;;;;;;;1.07;68.54;98222.73;1669004;84;21554;-55
2021/12/02 06:36:07;;;;;;;9.28;8.10;;;;;;;1.11;68.50;98221.79;1678101;84;21053;-56
2021/12/02 06:38:34;;;;;;;8.38;7.42;;;;;;;1.15;68.20;98222.11;1670692;84;21550;-56
2021/12/02 06:41:01;;;;;;;7.92;7.10;;;;;;;1.15;68.23;98228.58;1675593;84;21801;-55
2021/12/02 06:43:29;;;;;;;10.68;8.13;;;;;;;1.18;68.44;98226.80;1670736;84;21568;-56
2021/12/02 06:45:56;;;;;;;7.55;6.83;;;;;;;1.18;68.31;98226.34;1672420;84;21703;-55
2021/12/02 06:48:23;;;;;;;9.43;8.40;;;;;;;1.21;68.41;98228.02;1668428;84;21443;-56
2021/12/02 06:50:50;;;;;;;8.78;7.87;;;;;;;1.22;68.17;98227.11;1671313;84;21530;-55
2021/12/02 06:53:19;;;;;;;8.08;7.30;;;;;;;1.22;68.48;98225.81;1672106;84;21436;-54
2021/12/02 06:55:46;;;;;;;8.48;7.62;;;;;;;1.25;68.32;98221.86;1669560;84;21628;-55
2021/12/02 06:58:13;;;;;;;8.13;7.27;;;;;;;1.24;68.54;98218.84;1674369;84;21475;-54
2021/12/02 07:00:41;;;;;;;9.35;7.70;;;;;;;1.27;68.46;98221.36;1665376;84;28508;-55
2021/12/02 07:03:08;;;;;;;9.00;8.07;;;;;;;1.30;68.46;98227.73;1668269;84;21538;-61
2021/12/02 07:05:35;;;;;;;8.03;7.22;;;;;;;1.32;68.45;98222.93;1671413;84;21860;-59
2021/12/02 07:08:02;;;;;;;8.73;7.13;;;;;;;1.36;68.49;98226.28;1708978;82;21524;-57
2021/12/02 07:10:31;;;;;;;9.18;7.20;;;;;;;1.39;68.53;98215.82;1713970;82;21522;-56
2021/12/02 07:13:00;;;;;;;10.55;7.25;;;;;;;1.40;68.27;98212.35;1715169;82;21602;-57
2021/12/02 07:15:39;;;;;;;7.65;6.90;;;;;;;1.44;68.44;98210.52;1661221;84;21624;-63
2021/12/02 07:18:02;;;;;;;7.55;6.78;;;;;;;1.52;68.49;98217.16;1648682;85;22022;-57
2021/12/02 07:20:35;;;;;;;7.97;6.97;;;;;;;1.56;68.29;98211.45;1706169;82;21582;-57
2021/12/02 07:23:03;;;;;;;7.83;7.03;;;;;;;1.60;68.30;98217.39;1708211;82;21496;-61
2021/12/02 07:25:31;;;;;;;8.55;7.75;;;;;;;1.64;68.07;98218.57;1705493;82;21092;-59
2021/12/02 07:27:58;;;;;;;7.60;6.78;;;;;;;1.69;67.91;98214.53;1710557;82;21559;-60
2021/12/02 07:30:25;;;;;;;8.13;6.97;;;;;;;1.71;67.85;98199.36;1710526;82;21810;-61
2021/12/02 07:32:55;;;;;;;8.63;7.08;;;;;;;1.73;67.90;98215.71;1710251;82;21535;-57
2021/12/02 07:35:22;;;;;;;8.53;7.60;;;;;;;1.77;68.01;98208.66;1705491;82;21571;-56
2021/12/02 07:37:55;;;;;;;8.68;7.42;;;;;;;1.82;68.00;98209.37;1715572;82;21480;-56
2021/12/02 07:40:23;;;;;;;9.13;7.85;;;;;;;1.87;68.13;98213.98;1708682;82;21494;-58
2021/12/02 07:42:54;;;;;;;;;;;;;;;1.93;68.02;98204.72;1655631;84;21742;-57
2021/12/02 07:45:23;;;;;;;7.95;7.15;;;;;;;1.99;68.07;98201.55;1646931;85;20515;-56
2021/12/02 07:47:50;;;;;;;8.23;6.58;;;;;;;2.02;67.98;98212.67;1713945;82;21044;-56
2021/12/02 07:50:17;;;;;;;8.23;7.42;;;;;;;2.06;67.77;98216.86;1711565;82;21494;-56
2021/12/02 07:52:51;;;;;;;8.00;7.15;;;;;;;2.06;67.81;98202.59;1669343;84;21046;-56
2021/12/02 07:55:19;;;;;;;8.00;7.30;;;;;;;2.11;67.89;98215.41;1707842;82;22181;-56
2021/12/02 07:57:47;;;;;;;7.70;6.87;;;;;;;2.11;67.70;98208.92;1683216;82;21728;-57
2021/12/02 08:00:27;;;;;;;11.08;9.98;;;;;;;2.12;67.66;98213.23;1710485;82;21484;-58
2021/12/02 08:02:54;;;;;;;11.10;8.05;;;;;;;2.09;67.74;98227.57;1706434;82;21524;-58
2021/12/02 08:05:22;;;;;;;7.78;6.97;;;;;;;2.05;68.09;98226.81;1717561;82;21538;-55
2021/12/02 08:07:50;;;;;;;8.48;6.85;;;;;;;2.07;67.96;98219.87;1707476;82;21797;-55
2021/12/02 08:10:17;;;;;;;6.85;6.12;;;;;;;2.09;68.22;98218.08;1713215;82;20943;-55
2021/12/02 08:12:51;;;;;;;7.83;7.03;;;;;;;2.14;68.14;98220.05;1706025;82;21618;-56
2021/12/02 08:15:22;;;;;;;10.03;7.03;;;;;;;2.22;68.18;98215.08;1706865;82;21464;-56
2021/12/02 08:17:50;;;;;;;7.67;6.50;;;;;;;2.27;68.03;98222.27;1713740;82;21074;-56
2021/12/02 08:20:17;;;;;;;7.15;6.47;;;;;;;2.35;68.23;98224.16;1723940;82;21802;-56
2021/12/02 08:22:45;;;;;;;7.83;7.03;;;;;;;2.51;68.01;98216.74;1712557;82;21760;-57
2021/12/02 08:25:12;;;;;;;9.37;6.77;;;;;;;2.54;67.81;98217.92;1720071;82;21399;-56
2021/12/02 08:27:40;;;;;;;8.33;6.45;;;;;;;2.49;67.69;98215.48;1710189;82;21771;-56
2021/12/02 08:30:10;;;;;;;8.30;7.17;;;;;;;2.49;67.92;98210.30;1715462;82;21089;-56
2021/12/02 08:32:40;;;;;;;8.90;6.92;;;;;;;2.52;67.82;98218.42;1703839;82;21823;-56
2021/12/02 08:35:08;;;;;;;8.40;7.35;;;;;;;2.53;67.80;98217.53;1713874;82;21556;-55
2021/12/02 08:37:38;;;;;;;;;;;;;;;2.50;67.98;98216.33;1709606;82;21563;-56
2021/12/02 08:40:04;;;;;;;8.15;6.30;;;;;;;2.50;68.30;98220.22;1702525;82;20420;-55
2021/12/02 08:42:32;;;;;;;7.97;6.78;;;;;;;2.52;68.19;98218.00;1702245;82;21455;-54
2021/12/02 08:45:01;;;;;;;8.18;6.58;;;;;;;2.50;68.40;98222.81;1703565;82;22010;-55
2021/12/02 08:47:28;;;;;;;12.37;6.50;;;;;;;2.51;68.65;98222.77;1714834;82;21531;-56
2021/12/02 08:49:56;;;;;;;7.72;7.00;;;;;;;2.63;68.83;98225.86;1710667;82;20939;-56
2021/12/02 08:52:26;;;;;;;6.60;5.90;;;;;;;2.77;68.07;98231.88;1705702;82;21449;-56
2021/12/02 08:54:53;;;;;;;7.20;6.45;;;;;;;2.72;68.31;98219.06;1715609;81;21433;-55
2021/12/02 08:57:22;;;;;;;7.17;6.13;;;;;;;2.75;68.42;98220.70;1717040;82;21825;-55
2021/12/02 08:59:49;;;;;;;9.18;6.90;;;;;;;2.73;68.47;98216.42;1709885;82;21563;-56
2021/12/02 09:02:16;;;;;;;9.33;7.15;;;;;;;2.75;68.59;98218.11;1706418;82;21578;-56
2021/12/02 09:04:43;;;;;;;7.90;6.85;;;;;;;2.77;68.66;98214.58;1713905;82;21050;-56
2021/12/02 09:07:10;;;;;;;8.98;6.50;;;;;;;2.73;68.81;98218.15;1706968;82;21576;-55
2021/12/02 09:09:38;;;;;;;10.67;6.50;;;;;;;2.73;68.92;98216.85;1713238;82;21804;-56
2021/12/02 09:12:07;;;;;;;6.70;5.80;;;;;;;2.80;69.01;98213.16;1720474;82;25537;-55
2021/12/02 09:14:34;;;;;;;6.85;6.12;;;;;;;2.90;68.93;98200.70;1716121;82;21551;-55
2021/12/02 09:17:01;;;;;;;8.03;6.83;;;;;;;2.96;69.01;98204.83;1703960;82;21011;-56
2021/12/02 09:19:29;;;;;;;7.42;6.60;;;;;;;3.02;68.86;98199.45;1704038;82;21058;-56
2021/12/02 09:21:56;;;;;;;11.20;8.80;;;;;;;3.06;68.78;98194.53;1715868;82;21784;-56
2021/12/02 09:24:23;;;;;;;7.83;7.03;;;;;;;3.07;68.75;98194.48;1716816;82;20968;-55
2021/12/02 09:26:52;;;;;;;7.37;6.40;;;;;;;3.07;68.71;98201.41;1703883;82;21082;-57
2021/12/02 09:29:19;;;;;;;7.42;6.50;;;;;;;3.06;68.83;98206.22;1705766;82;21488;-55
2021/12/02 09:31:47;;;;;;;7.80;6.50;;;;;;;3.04;68.93;98188.09;1671554;84;21574;-56
2021/12/02 09:34:14;;;;;;;14.35;7.50;;;;;;;3.01;69.06;98189.48;1707215;82;22132;-57
2021/12/02 09:36:42;;;;;;;9.53;6.83;;;;;;;3.07;69.69;98190.59;1714660;82;21522;-56
2021/12/02 09:39:10;;;;;;;11.35;7.40;;;;;;;3.20;69.15;98185.81;1703735;82;21497;-58
2021/12/02 09:41:37;;;;;;;8.88;6.70;;;;;;;3.20;68.85;98182.34;1671382;84;21522;-57
2021/12/02 09:44:52;;;;;;;8.00;7.05;;;;;;;3.16;68.90;98183.36;1785654;79;22887;-57
2021/12/02 09:47:18;;;;;;;9.18;6.62;;;;;;;3.01;69.34;98192.55;1760497;80;21545;-58
2021/12/02 09:49:45;;;;;;;8.28;7.42;;;;;;;2.99;69.56;98182.66;1719893;80;21765;-58
2021/12/02 09:52:14;;;;;;;9.43;7.53;;;;;;;3.00;69.64;98179.18;1769181;80;21133;-58
2021/12/02 09:54:47;;;;;;;7.33;6.45;;;;;;;2.97;69.83;98172.78;1777192;79;21812;-58
2021/12/02 09:57:16;;;;;;;7.53;6.53;;;;;;;2.96;70.03;98176.27;1777314;80;21572;-58
2021/12/02 10:02:12;;;;;;;7.80;7.00;;;;;;;3.10;70.13;98181.83;1765866;79;22192;-62
2021/12/02 10:04:46;;;;;;;7.65;6.85;;;;;;;3.07;69.95;98176.31;1685220;83;21700;-61
2021/12/02 10:07:20;;;;;;;8.85;6.75;;;;;;;3.04;70.08;98172.52;1708594;82;21546;-59
2021/12/02 10:10:03;;;;;;;8.10;7.08;;;;;;;3.00;70.25;98167.50;1710694;82;21545;-58
2021/12/02 10:12:24;;;;;;;8.85;6.92;;;;;;;2.95;70.36;98166.34;1715693;82;21098;-60
2021/12/02 10:14:54;;;;;;;9.75;7.60;;;;;;;2.91;70.44;98156.52;1713399;82;21811;-60
2021/12/02 10:17:32;;;;;;;7.72;6.90;;;;;;;2.87;70.75;98155.39;1704407;83;21508;-59
2021/12/02 10:25:58;;;;;;;9.23;7.65;;;;;;;3.14;70.74;98150.11;1714989;82;21650;-59
2021/12/02 10:28:28;;;;;;;8.43;6.90;;;;;;;3.15;70.77;98153.95;1717014;82;22046;-58
2021/12/02 10:31:02;;;;;;;8.60;7.30;;;;;;;3.16;70.65;98153.49;1709037;82;21452;-59
2021/12/02 10:33:42;;;;;;;8.15;7.33;;;;;;;3.16;70.56;98157.39;1708817;82;21648;-61
2021/12/02 10:36:26;;;;;;;8.25;7.45;;;;;;;3.10;70.65;98149.37;1707984;82;21348;-59
2021/12/02 10:38:55;;;;;;;8.45;6.80;;;;;;;3.10;70.85;98148.07;1713749;81;21522;-57
2021/12/02 10:41:27;;;;;;;9.18;7.05;;;;;;;3.16;71.01;98145.24;1719188;81;21812;-60
2021/12/02 10:44:18;;;;;;;16.10;10.18;;;;;;;3.28;70.92;98148.70;1700702;82;21534;-58
2021/12/02 10:47:00;;;;;;;15.78;11.05;;;;;;;3.37;70.48;98151.42;1698969;83;21566;-58
2021/12/02 10:49:43;;;;;;;21.15;15.38;;;;;;;3.37;70.62;98155.31;1691176;83;21599;-58
2021/12/02 10:52:25;;;;;;;9.65;8.65;;;;;;;3.40;70.36;98144.79;1757336;80;21580;-58
2021/12/02 10:54:56;;;;;;;12.47;8.85;;;;;;;3.41;70.09;98142.59;1756238;80;21819;-57
2021/12/02 10:57:25;;;;;;;12.28;8.10;;;;;;;3.39;70.34;98139.64;1753904;80;21111;-58
2021/12/02 10:59:54;;;;;;;10.70;8.75;;;;;;;3.42;70.33;98139.08;1700360;83;21534;-58
2021/12/02 11:02:29;;;;;;;9.65;8.43;;;;;;;3.49;70.27;98136.64;1765227;80;21072;-58
2021/12/02 11:05:18;;;;;;;10.98;8.55;;;;;;;3.60;70.51;98121.95;1763618;80;21632;-58
2021/12/02 11:07:42;;;;;;;9.75;7.90;;;;;;;3.79;70.53;98118.17;1763112;80;21479;-58
2021/12/02 11:10:14;;;;;;;13.25;8.95;;;;;;;3.89;69.69;98114.75;1766653;80;21396;-58
2021/12/02 11:12:53;;;;;;;10.23;8.65;;;;;;;3.96;69.71;98117.97;1763500;80;21487;-58
2021/12/02 11:15:26;;;;;;;14.73;8.85;;;;;;;3.98;69.03;98118.75;1766110;80;21527;-58
2021/12/02 11:18:02;;;;;;;17.40;11.53;;;;;;;3.97;68.71;98132.18;1765642;80;21534;-58
2021/12/02 11:20:39;;;;;;;9.83;8.60;;;;;;;3.87;68.98;98127.80;1759677;80;21796;-58
2021/12/02 11:23:13;;;;;;;9.75;7.87;;;;;;;3.88;69.29;98124.31;1767738;80;21423;-58
2021/12/02 11:26:05;;;;;;;13.43;8.35;;;;;;;3.92;68.97;98121.56;1771315;80;21564;-57
2021/12/02 11:28:36;;;;;;;11.28;8.10;;;;;;;3.98;69.07;98123.95;1756775;80;21450;-57
2021/12/02 11:31:20;;;;;;;11.95;7.90;;;;;;;4.23;68.36;98118.58;1769937;80;20946;-60
2021/12/02 11:33:48;;;;;;;9.98;7.30;;;;;;;4.29;68.42;98124.39;1758613;80;21865;-60
2021/12/02 11:36:25;;;;;;;12.03;7.03;;;;;;;4.31;68.38;98124.77;1753590;80;21040;-60
2021/12/02 11:38:59;;;;;;;9.28;7.87;;;;;;;4.33;68.05;98125.54;1751745;80;21680;-59
2021/12/02 11:41:23;;;;;;;10.40;7.72;;;;;;;4.38;67.92;98127.51;1751594;80;21546;-58
2021/12/02 11:43:53;;;;;;;14.53;8.85;;;;;;;4.39;67.88;98125.28;1722032;82;21692;-59
2021/12/02 11:46:19;;;;;;;11.38;8.30;;;;;;;4.36;67.47;98124.13;1724125;82;22173;-59
2021/12/02 11:48:46;;;;;;;9.30;8.13;;;;;;;4.26;67.62;98124.50;1721649;82;21728;-58
2021/12/02 11:51:18;;;;;;;10.08;8.38;;;;;;;4.19;67.88;98123.06;1720164;82;21515;-58
2021/12/02 11:53:45;;;;;;;12.30;8.20;;;;;;;4.09;68.23;98119.99;1730049;82;21557;-59
2021/12/02 11:56:16;;;;;;;11.67;7.67;;;;;;;4.10;68.52;98123.43;1730572;82;21641;-59
2021/12/02 11:58:44;;;;;;;9.30;7.55;;;;;;;4.25;68.64;98122.80;1727408;82;22109;-59
2021/12/02 12:01:22;;;;;;;8.10;7.17;;;;;;;4.33;68.35;98122.94;1728070;82;21518;-59
2021/12/02 12:04:07;;;;;;;11.43;8.58;;;;;;;4.37;67.78;98117.99;1720956;82;21502;-58
2021/12/02 12:06:35;;;;;;;10.88;8.08;;;;;;;4.31;67.96;98106.08;1712283;82;21555;-59
2021/12/02 12:09:13;;;;;;;13.03;7.90;;;;;;;4.33;68.18;98108.16;1723408;82;21452;-60
2021/12/02 12:11:49;;;;;;;13.13;9.08;;;;;;;4.37;68.02;98107.58;1718786;82;21589;-59
2021/12/02 12:14:19;;;;;;;10.88;8.93;;;;;;;4.31;67.99;98095.67;1723952;82;21536;-59
2021/12/02 12:16:50;;;;;;;10.25;8.35;;;;;;;4.26;67.75;98098.48;1716161;82;21599;-59